Time;durP1;ratioP1;P1;durP2;ratioP2;P2;SDS_P1;SDS_P2;PMS_P1;PMS_P2;Temp;Humidity;BMP_temperature;BMP_pressure;BME280_temperature;BME280_humidity;BME280_pressure;Samples;Min_cycle;Max_cycle;Signal;HPM_P1;HPM_P2
2023/12/24 00:01:20;;;;;;;6.27;2.83;;;3.00;73.60;;;;;;5150465;27;20780;-64
2023/12/24 00:03:48;;;;;;;3.57;2.77;;;3.00;74.20;;;;;;5150245;27;20196;-65
2023/12/24 00:06:17;;;;;;;2.50;2.30;;;3.10;74.30;;;;;;5150344;27;20311;-64
2023/12/24 00:08:46;;;;;;;3.93;2.53;;;3.10;74.40;;;;;;5150097;27;20683;-64
2023/12/24 00:11:15;;;;;;;5.03;2.80;;;3.20;74.90;;;;;;5150415;27;20194;-63
2023/12/24 00:13:43;;;;;;;4.50;2.77;;;3.20;74.80;;;;;;5150504;27;20201;-64
2023/12/24 00:16:12;;;;;;;4.40;2.83;;;3.20;75.70;;;;;;5142792;27;20195;-64
2023/12/24 00:18:42;;;;;;;4.10;3.00;;;3.20;75.70;;;;;;5150104;27;20199;-66
2023/12/24 00:21:13;;;;;;;3.53;2.90;;;3.10;76.60;;;;;;5153681;27;20208;-67
2023/12/24 00:23:42;;;;;;;3.70;3.07;;;3.10;77.00;;;;;;5154735;27;20218;-66
2023/12/24 00:26:11;;;;;;;5.60;2.63;;;3.10;78.30;;;;;;5154479;27;20216;-64
2023/12/24 00:28:39;;;;;;;4.63;2.90;;;3.10;78.10;;;;;;5154371;27;20221;-65
2023/12/24 00:31:08;;;;;;;2.57;2.33;;;3.10;78.60;;;;;;5154211;27;20205;-65
2023/12/24 00:33:39;;;;;;;3.47;2.67;;;3.10;79.50;;;;;;5154296;27;20286;-65
2023/12/24 00:36:09;;;;;;;5.23;3.37;;;3.10;79.40;;;;;;5154380;27;20197;-64
2023/12/24 00:38:38;;;;;;;3.00;2.70;;;3.20;79.00;;;;;;5135154;27;20613;-65
2023/12/24 00:41:06;;;;;;;3.63;2.80;;;3.10;79.00;;;;;;5154264;27;20190;-66
2023/12/24 00:43:35;;;;;;;3.83;2.90;;;3.20;79.70;;;;;;5154301;27;20239;-66
2023/12/24 00:46:03;;;;;;;6.27;3.77;;;3.10;79.70;;;;;;5147616;27;20237;-65
2023/12/24 00:48:32;;;;;;;4.17;3.10;;;3.10;80.10;;;;;;5133785;27;20240;-64
2023/12/24 00:51:01;;;;;;;5.37;4.10;;;3.10;80.20;;;;;;5135704;27;20193;-64
2023/12/24 00:53:31;;;;;;;5.77;3.40;;;3.10;81.60;;;;;;5153989;27;20204;-65
2023/12/24 00:55:59;;;;;;;4.63;2.70;;;3.10;82.30;;;;;;5135206;27;20271;-64
2023/12/24 00:58:28;;;;;;;3.73;2.13;;;3.10;82.60;;;;;;5153600;27;20584;-65
2023/12/24 01:00:57;;;;;;;2.93;2.70;;;3.20;83.10;;;;;;5153524;27;20198;-65
2023/12/24 01:03:26;;;;;;;5.30;2.80;;;3.20;83.20;;;;;;5134316;27;20226;-65
2023/12/24 01:05:54;;;;;;;3.80;2.83;;;3.20;83.60;;;;;;5153370;27;20533;-65
2023/12/24 01:08:23;;;;;;;2.40;2.20;;;3.10;83.80;;;;;;5134569;27;20229;-65
2023/12/24 01:10:53;;;;;;;4.60;2.80;;;3.00;84.60;;;;;;5134269;27;20198;-65
2023/12/24 01:13:22;;;;;;;3.83;2.37;;;3.10;85.70;;;;;;5153142;27;20198;-65
2023/12/24 01:15:50;;;;;;;2.77;2.57;;;3.10;85.10;;;;;;5148464;27;20191;-65
2023/12/24 01:18:19;;;;;;;3.63;2.57;;;3.10;85.20;;;;;;5149721;27;20193;-66
2023/12/24 01:20:48;;;;;;;3.07;2.60;;;3.20;84.70;;;;;;5134289;27;20198;-65
2023/12/24 01:23:17;;;;;;;2.77;2.57;;;3.20;84.70;;;;;;5153071;27;20195;-67
2023/12/24 01:25:45;;;;;;;2.60;2.40;;;3.20;85.00;;;;;;5153067;27;20198;-64
2023/12/24 01:28:15;;;;;;;2.80;2.30;;;3.20;84.70;;;;;;5133963;27;20597;-63
2023/12/24 01:30:44;;;;;;;3.43;2.50;;;3.10;84.70;;;;;;5152855;27;20192;-64
2023/12/24 01:33:13;;;;;;;3.33;2.17;;;3.00;84.80;;;;;;5133405;27;20210;-65
2023/12/24 01:35:43;;;;;;;2.73;2.20;;;3.10;85.40;;;;;;5153102;27;20190;-65
2023/12/24 01:38:12;;;;;;;4.07;2.03;;;3.10;85.30;;;;;;5152545;27;20229;-64
2023/12/24 01:40:46;;;;;;;3.37;2.20;;;3.20;84.90;;;;;;5133874;27;20206;-64
2023/12/24 01:43:16;;;;;;;2.47;2.27;;;3.20;83.50;;;;;;5152622;27;20197;-66
2023/12/24 01:45:45;;;;;;;2.17;2.07;;;3.20;82.90;;;;;;5126932;27;20214;-66
2023/12/24 01:48:16;;;;;;;2.25;2.05;;;3.20;83.50;;;;;;5126521;27;20208;-67
2023/12/24 01:50:46;;;;;;;4.33;2.30;;;3.10;82.50;;;;;;5130413;27;20213;-66
2023/12/24 01:53:17;;;;;;;2.83;2.13;;;3.10;82.00;;;;;;5148726;27;20270;-66
2023/12/24 01:55:49;;;;;;;3.17;1.90;;;3.10;82.50;;;;;;5152585;27;20193;-65
2023/12/24 01:58:19;;;;;;;5.00;2.30;;;3.10;81.70;;;;;;5133388;27;20291;-66
2023/12/24 02:00:48;;;;;;;1.90;1.73;;;3.20;82.10;;;;;;5133613;27;20587;-66
2023/12/24 02:03:17;;;;;;;2.00;1.80;;;3.10;81.50;;;;;;5133188;27;20209;-66
2023/12/24 02:05:48;;;;;;;2.87;1.97;;;3.10;81.00;;;;;;5133611;27;20201;-65
2023/12/24 02:08:20;;;;;;;2.00;1.90;;;3.10;81.70;;;;;;5133135;27;20202;-66
2023/12/24 02:10:49;;;;;;;3.40;2.30;;;3.10;81.00;;;;;;5151743;27;20345;-66
2023/12/24 02:13:20;;;;;;;3.90;2.17;;;3.10;80.10;;;;;;5133034;27;20204;-66
2023/12/24 02:15:52;;;;;;;2.87;1.97;;;3.10;78.60;;;;;;5147433;27;20207;-65
2023/12/24 02:18:21;;;;;;;3.10;2.30;;;3.20;78.90;;;;;;5148640;27;20967;-65
2023/12/24 02:20:50;;;;;;;2.00;1.90;;;3.10;77.80;;;;;;5132945;27;20303;-65
2023/12/24 02:23:20;;;;;;;6.37;2.00;;;3.10;77.50;;;;;;5151821;27;20194;-67
2023/12/24 02:25:51;;;;;;;1.80;1.70;;;3.10;76.60;;;;;;5132897;27;20201;-66
2023/12/24 02:28:24;;;;;;;2.70;1.90;;;3.00;76.20;;;;;;5133065;27;20211;-66
2023/12/24 02:30:57;;;;;;;1.87;1.77;;;3.10;76.60;;;;;;5132717;27;20230;-67
2023/12/24 02:33:30;;;;;;;2.03;1.90;;;3.10;75.90;;;;;;5151642;27;20197;-64
2023/12/24 02:36:00;;;;;;;5.93;2.30;;;3.00;76.90;;;;;;5132328;27;20210;-68
2023/12/24 02:38:31;;;;;;;2.20;1.93;;;3.00;77.70;;;;;;5151325;27;20221;-67
2023/12/24 02:41:00;;;;;;;2.73;2.00;;;2.90;77.70;;;;;;5151408;27;20565;-66
2023/12/24 02:43:28;;;;;;;3.67;1.93;;;2.90;78.40;;;;;;5132458;27;20909;-66
2023/12/24 02:45:59;;;;;;;1.87;1.77;;;2.90;78.60;;;;;;5145649;27;20301;-67
2023/12/24 02:48:27;;;;;;;1.80;1.70;;;2.90;78.90;;;;;;5130307;27;20295;-67
2023/12/24 02:50:56;;;;;;;1.80;1.70;;;2.90;79.00;;;;;;5151235;27;20215;-67
2023/12/24 02:53:24;;;;;;;2.00;1.90;;;2.90;78.90;;;;;;5151168;27;20284;-67
2023/12/24 02:55:54;;;;;;;2.23;1.53;;;2.80;79.40;;;;;;5132340;27;20207;-66
2023/12/24 02:58:24;;;;;;;2.53;2.00;;;2.80;80.00;;;;;;5151252;27;20193;-67
2023/12/24 03:00:53;;;;;;;2.57;2.37;;;2.80;80.90;;;;;;5132531;27;20992;-67
2023/12/24 03:03:21;;;;;;;2.37;2.07;;;2.80;81.70;;;;;;5132170;27;20260;-66
2023/12/24 03:05:50;;;;;;;2.20;2.00;;;2.70;82.20;;;;;;5151014;27;20192;-67
2023/12/24 03:08:19;;;;;;;3.20;2.10;;;2.70;82.30;;;;;;5132338;27;20295;-65
2023/12/24 03:10:47;;;;;;;4.00;2.40;;;2.70;83.10;;;;;;5150665;27;20317;-66
2023/12/24 03:13:17;;;;;;;2.30;2.10;;;2.80;82.50;;;;;;5151031;27;20196;-68
2023/12/24 03:15:46;;;;;;;3.30;2.10;;;2.70;82.80;;;;;;5132011;27;20228;-66
2023/12/24 03:18:15;;;;;;;3.90;2.30;;;2.80;82.60;;;;;;5132082;27;20217;-64
2023/12/24 03:20:43;;;;;;;3.00;2.30;;;2.70;83.30;;;;;;5150726;27;20564;-66
2023/12/24 03:23:12;;;;;;;2.30;2.10;;;2.70;84.30;;;;;;5150823;27;20188;-65
2023/12/24 03:25:40;;;;;;;4.90;2.27;;;2.60;84.40;;;;;;5150552;27;20768;-66
2023/12/24 03:28:09;;;;;;;2.63;2.03;;;2.60;85.00;;;;;;5150512;27;20217;-66
2023/12/24 03:30:39;;;;;;;2.50;2.30;;;2.60;84.00;;;;;;5131671;27;20237;-66
2023/12/24 03:33:07;;;;;;;3.27;2.50;;;2.60;85.20;;;;;;5131736;27;20616;-65
2023/12/24 03:35:36;;;;;;;3.07;2.47;;;2.60;85.60;;;;;;5150499;27;20195;-66
2023/12/24 03:38:05;;;;;;;2.50;2.27;;;2.70;85.30;;;;;;5150425;27;20192;-65
2023/12/24 03:40:33;;;;;;;6.07;2.80;;;2.70;83.40;;;;;;5150305;27;20198;-67
2023/12/24 03:43:02;;;;;;;2.83;2.53;;;2.70;84.40;;;;;;5150262;27;20186;-66
2023/12/24 03:45:32;;;;;;;2.87;2.50;;;2.60;85.40;;;;;;5150159;27;20193;-66
2023/12/24 03:48:04;;;;;;;2.70;2.50;;;2.50;86.00;;;;;;5150211;27;20256;-66
2023/12/24 03:50:33;;;;;;;4.83;2.67;;;2.60;86.00;;;;;;5131495;27;20228;-66
2023/12/24 03:53:02;;;;;;;2.97;2.47;;;2.60;85.30;;;;;;5150210;27;20696;-66
2023/12/24 03:55:31;;;;;;;7.03;2.50;;;2.60;84.00;;;;;;5149851;27;20189;-66
2023/12/24 03:58:01;;;;;;;2.67;2.23;;;2.50;84.80;;;;;;5131643;27;20275;-67
2023/12/24 04:00:30;;;;;;;3.43;2.03;;;2.50;86.00;;;;;;5150528;27;20224;-67
2023/12/24 04:02:59;;;;;;;3.17;2.00;;;2.40;86.50;;;;;;5150102;27;20280;-68
2023/12/24 04:05:29;;;;;;;3.20;2.30;;;2.40;85.60;;;;;;5150149;27;20193;-67
2023/12/24 04:07:57;;;;;;;4.10;2.63;;;2.40;86.40;;;;;;5150006;27;20260;-68
2023/12/24 04:10:26;;;;;;;2.53;2.23;;;2.40;85.80;;;;;;5150033;27;20594;-66
2023/12/24 04:12:55;;;;;;;2.43;2.20;;;2.50;85.70;;;;;;5149999;27;20208;-67
2023/12/24 04:15:25;;;;;;;2.27;2.13;;;2.60;84.90;;;;;;5131248;27;20272;-66
2023/12/24 04:17:54;;;;;;;3.13;2.30;;;2.60;85.40;;;;;;5131290;27;20198;-65
2023/12/24 04:20:23;;;;;;;2.97;2.67;;;2.60;85.30;;;;;;5149905;27;20555;-64
2023/12/24 04:22:53;;;;;;;3.20;2.30;;;2.70;85.20;;;;;;5131248;27;20296;-64
2023/12/24 04:25:22;;;;;;;2.17;1.90;;;2.70;84.50;;;;;;5149908;27;20202;-65
2023/12/24 04:27:52;;;;;;;3.93;2.07;;;2.60;84.50;;;;;;5130934;27;20727;-65
2023/12/24 04:30:21;;;;;;;2.70;2.20;;;2.60;85.70;;;;;;5131032;27;20226;-67
2023/12/24 04:32:50;;;;;;;4.43;2.30;;;2.50;86.60;;;;;;5131157;27;20199;-65
2023/12/24 04:35:18;;;;;;;2.23;2.00;;;2.60;87.70;;;;;;5149871;27;20220;-66
2023/12/24 04:37:47;;;;;;;3.13;2.50;;;2.60;89.00;;;;;;5130951;27;20198;-65
2023/12/24 04:40:17;;;;;;;2.30;2.10;;;2.60;88.50;;;;;;5149647;27;20207;-66
2023/12/24 04:42:46;;;;;;;3.87;2.57;;;2.50;90.00;;;;;;5130492;27;20313;-67
2023/12/24 04:45:15;;;;;;;3.07;2.43;;;2.50;90.40;;;;;;5131069;27;20247;-65
2023/12/24 04:47:43;;;;;;;4.37;2.87;;;2.50;91.30;;;;;;5149484;27;20225;-66
2023/12/24 04:50:12;;;;;;;3.43;2.30;;;2.40;92.10;;;;;;5130999;27;20223;-65
2023/12/24 04:52:41;;;;;;;4.53;2.80;;;2.50;92.10;;;;;;5131167;27;20206;-66
2023/12/24 04:55:10;;;;;;;2.40;2.20;;;2.50;92.70;;;;;;5130917;27;20195;-66
2023/12/24 04:57:41;;;;;;;2.87;2.67;;;2.50;92.70;;;;;;5130622;27;20205;-68
2023/12/24 05:00:10;;;;;;;4.03;2.27;;;2.40;93.80;;;;;;5130711;27;20205;-65
2023/12/24 05:02:39;;;;;;;6.10;2.47;;;2.40;94.60;;;;;;5130795;27;20568;-65
2023/12/24 05:05:08;;;;;;;4.67;2.47;;;2.40;95.60;;;;;;5130959;27;20609;-65
2023/12/24 05:07:37;;;;;;;5.03;3.10;;;2.30;96.50;;;;;;5151628;27;20225;-66
2023/12/24 05:10:07;;;;;;;3.63;2.50;;;2.30;97.10;;;;;;5134386;27;20318;-67
2023/12/24 05:12:35;;;;;;;2.57;2.37;;;2.30;97.90;;;;;;5134560;27;20359;-64
2023/12/24 05:15:06;;;;;;;3.60;2.47;;;2.20;99.10;;;;;;5153247;27;20264;-64
2023/12/24 05:17:35;;;;;;;3.93;3.30;;;2.10;99.90;;;;;;5134390;27;20747;-65
2023/12/24 05:20:04;;;;;;;6.43;3.17;;;2.10;99.90;;;;;;5134533;27;20191;-65
2023/12/24 05:22:32;;;;;;;3.80;2.50;;;2.00;99.90;;;;;;5134597;27;20250;-65
2023/12/24 05:25:01;;;;;;;5.03;2.40;;;1.90;99.90;;;;;;5153282;27;20193;-65
2023/12/24 05:27:30;;;;;;;6.27;2.53;;;1.90;99.90;;;;;;5153075;27;20204;-65
2023/12/24 05:29:58;;;;;;;6.47;3.03;;;1.80;99.90;;;;;;5153173;27;20201;-64
2023/12/24 05:32:28;;;;;;;3.27;2.83;;;1.80;99.90;;;;;;5153130;27;20213;-66
2023/12/24 05:34:57;;;;;;;6.27;2.87;;;1.80;99.90;;;;;;5153166;27;20194;-65
2023/12/24 05:37:25;;;;;;;4.63;2.90;;;1.80;99.90;;;;;;5152839;27;20217;-65
2023/12/24 05:39:54;;;;;;;7.17;2.90;;;1.80;99.90;;;;;;5152959;27;20572;-65
2023/12/24 05:42:23;;;;;;;3.77;2.77;;;1.80;99.90;;;;;;5152755;27;20205;-65
2023/12/24 05:44:51;;;;;;;6.67;2.90;;;1.90;99.90;;;;;;5152988;27;20294;-65
2023/12/24 05:47:20;;;;;;;5.17;2.63;;;2.00;99.90;;;;;;5152342;27;20225;-65
2023/12/24 05:49:50;;;;;;;3.00;2.80;;;1.90;99.90;;;;;;5152607;27;20242;-64
2023/12/24 05:52:18;;;;;;;5.20;2.93;;;1.90;99.90;;;;;;5152647;27;20239;-66
2023/12/24 05:54:47;;;;;;;5.07;2.43;;;1.90;99.90;;;;;;5153020;27;20197;-64
2023/12/24 05:57:15;;;;;;;3.10;2.80;;;1.90;99.90;;;;;;5152517;27;20192;-65
2023/12/24 05:59:44;;;;;;;3.77;2.87;;;1.90;99.90;;;;;;5134016;27;20201;-62
2023/12/24 06:02:12;;;;;;;5.67;3.20;;;1.80;99.90;;;;;;5152609;27;20199;-62
2023/12/24 06:04:41;;;;;;;9.27;2.93;;;1.80;99.90;;;;;;5152532;27;20189;-64
2023/12/24 06:07:11;;;;;;;4.87;2.70;;;1.90;99.90;;;;;;5152566;27;20200;-64
2023/12/24 06:09:40;;;;;;;5.03;2.80;;;1.80;99.90;;;;;;5152080;27;20207;-65
2023/12/24 06:12:09;;;;;;;5.03;2.57;;;1.80;99.90;;;;;;5152231;27;20954;-63
2023/12/24 06:14:39;;;;;;;3.00;2.70;;;1.70;99.90;;;;;;5152392;27;20204;-64
2023/12/24 06:17:08;;;;;;;3.10;2.80;;;1.80;99.90;;;;;;5151867;27;20225;-64
2023/12/24 06:19:37;;;;;;;4.03;2.70;;;1.80;99.90;;;;;;5152091;27;20192;-65
2023/12/24 06:22:06;;;;;;;3.07;2.40;;;1.80;99.90;;;;;;5152063;27;20226;-65
2023/12/24 06:24:36;;;;;;;3.97;2.37;;;1.80;99.90;;;;;;5152239;27;20197;-65
2023/12/24 06:27:05;;;;;;;3.63;2.20;;;1.90;99.90;;;;;;5151674;27;20951;-64
2023/12/24 06:29:33;;;;;;;5.33;2.20;;;1.90;99.90;;;;;;5151997;27;20194;-66
2023/12/24 06:32:02;;;;;;;3.97;2.67;;;2.00;99.90;;;;;;5151790;27;20213;-66
2023/12/24 06:34:31;;;;;;;6.07;2.07;;;1.90;99.90;;;;;;5151933;27;20280;-65
2023/12/24 06:36:59;;;;;;;4.13;2.73;;;1.90;99.90;;;;;;5151812;27;20205;-66
2023/12/24 06:39:28;;;;;;;3.87;2.90;;;1.90;99.90;;;;;;5151553;27;20208;-65
2023/12/24 06:41:58;;;;;;;9.73;2.97;;;1.80;99.90;;;;;;5151703;27;20210;-66
2023/12/24 06:44:26;;;;;;;4.17;2.70;;;1.80;99.90;;;;;;5151613;27;20203;-66
2023/12/24 06:46:55;;;;;;;3.67;3.03;;;1.70;99.90;;;;;;5151352;27;20233;-67
2023/12/24 06:49:23;;;;;;;10.37;3.50;;;1.80;99.90;;;;;;5151387;27;20208;-65
2023/12/24 06:51:52;;;;;;;3.43;2.57;;;1.90;99.90;;;;;;5151760;27;20252;-67
2023/12/24 06:54:20;;;;;;;7.77;3.13;;;2.00;99.90;;;;;;5151471;27;20821;-65
2023/12/24 06:56:49;;;;;;;6.13;3.93;;;2.00;99.90;;;;;;5141887;27;20198;-66
2023/12/24 06:59:19;;;;;;;5.90;3.27;;;1.80;99.90;;;;;;5151173;27;20205;-64
2023/12/24 07:01:47;;;;;;;6.33;2.60;;;1.90;99.90;;;;;;5125348;27;20709;-64
2023/12/24 07:04:16;;;;;;;4.23;3.07;;;1.90;99.90;;;;;;5140285;27;20935;-64
2023/12/24 07:06:45;;;;;;;3.80;2.47;;;2.00;99.90;;;;;;5130450;27;20225;-64
2023/12/24 07:09:13;;;;;;;4.77;2.90;;;2.00;99.90;;;;;;5148874;27;20273;-65
2023/12/24 07:11:42;;;;;;;3.53;2.73;;;2.00;99.90;;;;;;5150966;27;20324;-65
2023/12/24 07:14:10;;;;;;;2.93;2.67;;;2.00;99.90;;;;;;5150830;27;20195;-66
2023/12/24 07:16:40;;;;;;;4.50;2.57;;;2.10;99.90;;;;;;5150809;27;20263;-64
2023/12/24 07:19:09;;;;;;;4.50;3.07;;;2.10;99.90;;;;;;5147591;27;20275;-63
2023/12/24 07:21:37;;;;;;;5.73;3.10;;;2.10;99.90;;;;;;5140302;27;20262;-63
2023/12/24 07:24:07;;;;;;;5.17;2.73;;;2.10;99.90;;;;;;5147548;27;20224;-63
2023/12/24 07:26:36;;;;;;;6.17;2.70;;;2.20;99.90;;;;;;5138749;27;20243;-65
2023/12/24 07:29:05;;;;;;;4.70;3.27;;;2.10;99.90;;;;;;5129693;27;20190;-65
2023/12/24 07:31:33;;;;;;;4.60;2.87;;;2.10;99.90;;;;;;5130171;27;20233;-65
2023/12/24 07:34:03;;;;;;;6.57;3.40;;;2.10;99.90;;;;;;5129976;27;20195;-66
2023/12/24 07:36:32;;;;;;;5.30;2.77;;;2.10;99.90;;;;;;5130296;27;20224;-64
2023/12/24 07:39:01;;;;;;;3.93;2.80;;;2.10;99.90;;;;;;5130505;27;20560;-63
2023/12/24 07:41:31;;;;;;;8.17;3.50;;;2.20;99.90;;;;;;5130477;27;20201;-64
2023/12/24 07:44:00;;;;;;;4.47;3.33;;;2.30;99.90;;;;;;5111723;27;20206;-64
2023/12/24 07:46:28;;;;;;;7.27;3.97;;;2.30;99.90;;;;;;5129919;27;20248;-63
2023/12/24 07:48:57;;;;;;;8.43;3.77;;;2.20;99.90;;;;;;5129834;27;20199;-64
2023/12/24 07:51:29;;;;;;;5.93;3.33;;;2.20;99.90;;;;;;5130045;27;20213;-66
2023/12/24 07:53:58;;;;;;;4.97;3.90;;;2.30;99.90;;;;;;5130162;27;20210;-65
2023/12/24 07:56:27;;;;;;;7.00;4.00;;;2.30;99.90;;;;;;5129973;27;20407;-65
2023/12/24 07:58:55;;;;;;;7.73;3.73;;;2.20;99.90;;;;;;5130150;27;20185;-64
2023/12/24 08:01:24;;;;;;;5.70;3.90;;;2.30;99.90;;;;;;5143993;27;20208;-65
2023/12/24 08:03:52;;;;;;;4.57;3.67;;;2.30;99.90;;;;;;5167328;27;20201;-64
2023/12/24 08:06:21;;;;;;;6.87;3.70;;;2.30;99.90;;;;;;5150773;27;20196;-64
2023/12/24 08:08:56;;;;;;;4.00;3.10;;;2.40;99.90;;;;;;5150962;27;20216;-64
2023/12/24 08:11:25;;;;;;;5.63;3.43;;;2.50;99.90;;;;;;5150771;27;20194;-66
2023/12/24 08:13:54;;;;;;;7.47;4.07;;;2.60;99.90;;;;;;5150477;27;20222;-66
2023/12/24 08:16:23;;;;;;;7.97;3.13;;;2.60;99.90;;;;;;5143695;27;20205;-65
2023/12/24 08:18:51;;;;;;;7.17;3.70;;;2.50;99.90;;;;;;5150412;27;20202;-64
2023/12/24 08:21:20;;;;;;;9.60;4.03;;;2.60;99.90;;;;;;5145810;27;20198;-66
2023/12/24 08:23:52;;;;;;;8.37;3.80;;;2.60;99.90;;;;;;5130004;28;20678;-65
2023/12/24 08:26:22;;;;;;;7.00;3.93;;;2.60;99.90;;;;;;5130053;28;20749;-64
2023/12/24 08:28:51;;;;;;;9.47;4.57;;;2.80;99.90;;;;;;5129860;28;20187;-66
2023/12/24 08:31:20;;;;;;;7.03;3.73;;;2.90;99.90;;;;;;5129428;28;20241;-66
2023/12/24 08:33:49;;;;;;;7.27;3.93;;;2.90;99.90;;;;;;5124550;27;20313;-65
2023/12/24 08:36:17;;;;;;;6.63;4.17;;;2.90;99.90;;;;;;5150720;27;20298;-65
2023/12/24 08:38:46;;;;;;;17.60;9.47;;;2.90;99.90;;;;;;5150518;27;20308;-65
2023/12/24 08:41:14;;;;;;;10.53;3.80;;;3.00;99.90;;;;;;5152243;27;20659;-64
2023/12/24 08:43:45;;;;;;;8.93;4.60;;;3.00;99.90;;;;;;5154693;27;20222;-67
2023/12/24 08:46:13;;;;;;;8.27;4.13;;;3.00;99.90;;;;;;5153703;27;20234;-65
2023/12/24 08:48:42;;;;;;;4.83;3.93;;;3.00;99.90;;;;;;5154573;27;20281;-63
2023/12/24 08:51:10;;;;;;;7.23;3.43;;;3.20;99.90;;;;;;5154464;27;20209;-65
2023/12/24 08:53:40;;;;;;;7.90;4.10;;;3.30;99.90;;;;;;5154374;27;20340;-65
2023/12/24 08:56:09;;;;;;;10.60;4.17;;;3.40;99.90;;;;;;5154472;27;20189;-63
2023/12/24 08:58:38;;;;;;;9.37;3.90;;;3.20;99.90;;;;;;5154126;27;20618;-65
2023/12/24 09:01:08;;;;;;;10.53;4.47;;;3.20;99.90;;;;;;5153766;27;20202;-63
2023/12/24 09:03:36;;;;;;;7.83;4.47;;;3.30;99.90;;;;;;5146862;27;20218;-66
2023/12/24 09:06:05;;;;;;;5.10;4.23;;;3.50;99.90;;;;;;5154041;27;20603;-64
2023/12/24 09:08:34;;;;;;;8.70;4.70;;;3.50;99.90;;;;;;5153907;27;20198;-63
2023/12/24 09:11:03;;;;;;;8.33;4.17;;;3.50;99.90;;;;;;5154160;27;20206;-63
2023/12/24 09:13:31;;;;;;;9.50;4.73;;;3.30;99.90;;;;;;5153715;27;20583;-65
2023/12/24 09:16:00;;;;;;;10.33;5.70;;;3.40;99.90;;;;;;5153449;27;20194;-63
2023/12/24 09:18:30;;;;;;;8.03;4.80;;;3.40;99.90;;;;;;5153770;27;20221;-65
2023/12/24 09:20:58;;;;;;;7.80;4.90;;;3.50;99.90;;;;;;5153921;27;20245;-65
2023/12/24 09:23:27;;;;;;;9.77;4.83;;;3.70;99.90;;;;;;5154237;27;20548;-65
2023/12/24 09:25:56;;;;;;;9.00;5.07;;;3.60;99.90;;;;;;5153806;27;20197;-67
2023/12/24 09:28:24;;;;;;;8.50;4.80;;;3.60;99.90;;;;;;5153707;27;20204;-66
2023/12/24 09:30:53;;;;;;;11.07;4.80;;;3.70;99.90;;;;;;5153415;27;20305;-64
2023/12/24 09:33:21;;;;;;;12.70;6.30;;;3.70;99.90;;;;;;5153635;27;20255;-65
2023/12/24 09:35:51;;;;;;;15.87;6.30;;;3.70;99.90;;;;;;5158985;27;20189;-65
2023/12/24 09:38:20;;;;;;;9.17;4.67;;;3.70;99.90;;;;;;5143189;27;20198;-63
2023/12/24 09:40:49;;;;;;;8.07;5.27;;;3.70;99.90;;;;;;5137070;27;20284;-65
2023/12/24 09:43:17;;;;;;;8.43;5.60;;;3.70;99.90;;;;;;5132491;27;20225;-64
2023/12/24 09:45:46;;;;;;;13.23;6.17;;;3.70;99.90;;;;;;5132002;27;20187;-67
2023/12/24 09:48:15;;;;;;;14.83;5.43;;;3.90;99.90;;;;;;5132422;27;20807;-66
2023/12/24 09:50:43;;;;;;;10.37;6.03;;;3.90;99.90;;;;;;5132533;27;20671;-64
2023/12/24 09:53:15;;;;;;;11.90;6.20;;;3.80;99.90;;;;;;5131818;27;20218;-65
2023/12/24 09:55:44;;;;;;;11.63;5.83;;;3.90;99.90;;;;;;5143004;27;20206;-64
2023/12/24 09:58:12;;;;;;;10.50;6.50;;;3.90;99.90;;;;;;5173543;27;20225;-66
2023/12/24 10:00:41;;;;;;;10.27;5.23;;;4.00;99.90;;;;;;5173193;27;20201;-64
2023/12/24 10:03:09;;;;;;;9.40;5.27;;;4.20;99.90;;;;;;5173554;27;20202;-65
2023/12/24 10:05:58;;;;;;;15.10;6.20;;;4.10;99.90;;;;;;5155118;27;20559;-65
2023/12/24 10:08:28;;;;;;;11.13;6.10;;;4.30;99.90;;;;;;5151900;27;20214;-65
2023/12/24 10:10:57;;;;;;;12.00;6.13;;;4.40;99.90;;;;;;5152633;27;20707;-65
2023/12/24 10:13:25;;;;;;;9.77;5.60;;;4.40;99.90;;;;;;5152023;27;20796;-64
2023/12/24 10:16:05;;;;;;;10.00;5.87;;;4.30;99.90;;;;;;5152522;27;20217;-65
2023/12/24 10:18:34;;;;;;;13.77;7.80;;;4.40;99.90;;;;;;5152631;27;20194;-64
2023/12/24 10:21:07;;;;;;;16.60;7.80;;;4.50;99.90;;;;;;5152690;27;20294;-63
2023/12/24 10:23:37;;;;;;;10.83;6.80;;;4.40;99.90;;;;;;5144742;27;20201;-64
2023/12/24 10:26:08;;;;;;;9.73;5.90;;;4.50;99.90;;;;;;5144349;27;20890;-65
2023/12/24 10:28:48;;;;;;;9.90;5.73;;;4.50;99.90;;;;;;5145333;27;20190;-62
2023/12/24 10:31:20;;;;;;;9.57;6.53;;;4.40;99.90;;;;;;5147676;27;20247;-65
2023/12/24 10:33:49;;;;;;;9.47;5.83;;;4.40;99.90;;;;;;5152481;27;20647;-65
2023/12/24 10:36:23;;;;;;;9.93;6.57;;;4.50;99.90;;;;;;5152251;27;20223;-66
2023/12/24 10:38:53;;;;;;;11.03;6.90;;;4.50;99.90;;;;;;5151380;27;20980;-65
2023/12/24 10:41:21;;;;;;;14.47;7.07;;;4.40;99.90;;;;;;5152263;27;20269;-64
2023/12/24 10:43:50;;;;;;;14.67;6.47;;;4.50;99.90;;;;;;5152161;27;20198;-65
2023/12/24 10:46:18;;;;;;;10.80;6.70;;;4.50;99.90;;;;;;5151958;27;20250;-64
2023/12/24 10:48:47;;;;;;;12.07;7.17;;;4.40;99.90;;;;;;5152310;27;20195;-63
2023/12/24 10:51:16;;;;;;;13.43;7.80;;;4.50;99.90;;;;;;5152350;27;20194;-65
2023/12/24 10:53:44;;;;;;;15.57;7.87;;;4.40;99.90;;;;;;5151604;27;20217;-65
2023/12/24 10:56:23;;;;;;;14.60;7.63;;;4.50;99.90;;;;;;5151699;27;20296;-66
2023/12/24 10:58:59;;;;;;;9.93;7.80;;;4.60;99.90;;;;;;5152102;27;20273;-64
2023/12/24 11:01:29;;;;;;;13.37;6.97;;;4.70;99.90;;;;;;5151811;27;20737;-66
2023/12/24 11:03:57;;;;;;;25.67;13.13;;;4.80;99.90;;;;;;5151571;27;20277;-67
2023/12/24 11:06:48;;;;;;;11.20;7.73;;;4.80;99.90;;;;;;5151464;27;20277;-65
2023/12/24 11:09:47;;;;;;;12.00;7.87;;;4.90;99.90;;;;;;5151127;27;20194;-64
2023/12/24 11:12:33;;;;;;;16.57;9.17;;;5.00;99.90;;;;;;5151251;27;20206;-64
2023/12/24 11:15:03;;;;;;;14.30;8.43;;;4.90;99.90;;;;;;5151385;27;20218;-68
2023/12/24 11:17:50;;;;;;;15.67;8.23;;;4.90;99.90;;;;;;5151457;27;20199;-64
2023/12/24 11:20:46;;;;;;;16.87;7.97;;;4.80;99.90;;;;;;5141732;27;20220;-66
2023/12/24 11:23:18;;;;;;;10.20;7.70;;;4.60;99.90;;;;;;5066738;28;20906;-67
2023/12/24 11:25:48;;;;;;;17.50;9.07;;;4.60;99.90;;;;;;5070553;28;20223;-64
2023/12/24 11:28:37;;;;;;;15.43;8.67;;;4.70;99.90;;;;;;5087344;28;20226;-62
2023/12/24 11:31:08;;;;;;;11.57;8.13;;;4.70;99.90;;;;;;5086897;28;20295;-64
2023/12/24 11:33:49;;;;;;;12.77;8.23;;;4.60;99.90;;;;;;5087257;28;20227;-65
2023/12/24 11:36:20;;;;;;;12.60;7.30;;;4.60;99.90;;;;;;5087065;28;20275;-67
2023/12/24 11:38:48;;;;;;;12.00;7.40;;;4.40;99.90;;;;;;5086203;28;20204;-66
2023/12/24 11:41:19;;;;;;;11.10;6.93;;;4.30;99.90;;;;;;5086807;28;20199;-67
2023/12/24 11:43:57;;;;;;;9.80;7.40;;;4.30;99.90;;;;;;5098993;28;20280;-66
2023/12/24 11:46:27;;;;;;;12.70;6.90;;;4.30;99.90;;;;;;5106517;28;20223;-65
2023/12/24 11:48:57;;;;;;;10.57;6.57;;;4.50;99.90;;;;;;5107292;28;20202;-65
2023/12/24 11:51:27;;;;;;;11.17;7.00;;;4.60;99.90;;;;;;5103558;28;20200;-65
2023/12/24 11:54:03;;;;;;;9.80;7.03;;;4.60;99.90;;;;;;5106789;28;20703;-66
2023/12/24 11:56:32;;;;;;;10.40;6.83;;;4.40;99.90;;;;;;5097091;28;20210;-68
2023/12/24 11:59:05;;;;;;;9.50;6.80;;;4.20;99.90;;;;;;5115381;27;20210;-66
2023/12/24 12:01:36;;;;;;;8.67;6.17;;;4.30;99.90;;;;;;5150540;27;20281;-65
2023/12/24 12:04:06;;;;;;;9.73;6.67;;;4.50;99.90;;;;;;5150719;27;20289;-64
2023/12/24 12:06:36;;;;;;;11.57;6.43;;;4.60;99.90;;;;;;5150120;27;20220;-64
2023/12/24 12:09:06;;;;;;;8.27;6.13;;;4.60;99.90;;;;;;5150424;27;20194;-64
2023/12/24 12:11:35;;;;;;;10.47;6.67;;;4.50;99.90;;;;;;5142122;27;20302;-61
2023/12/24 12:14:05;;;;;;;14.03;8.97;;;4.50;99.90;;;;;;5136856;27;21002;-66
2023/12/24 12:16:34;;;;;;;10.10;7.20;;;4.50;99.90;;;;;;5148375;27;20198;-64
2023/12/24 12:19:03;;;;;;;10.10;6.63;;;4.50;99.90;;;;;;5154702;27;20671;-63
2023/12/24 12:21:32;;;;;;;10.07;7.10;;;4.50;99.90;;;;;;5163484;27;20983;-65
2023/12/24 12:24:00;;;;;;;11.37;7.60;;;4.50;99.90;;;;;;5175667;27;20189;-65
2023/12/24 12:26:29;;;;;;;14.40;7.93;;;4.60;99.90;;;;;;5166165;27;20215;-68
2023/12/24 12:28:57;;;;;;;11.90;8.20;;;4.50;99.90;;;;;;5154797;27;20925;-65
2023/12/24 12:31:27;;;;;;;10.70;7.80;;;4.40;99.90;;;;;;5154371;27;20202;-65
2023/12/24 12:33:56;;;;;;;10.90;7.57;;;4.60;99.90;;;;;;5154630;27;20985;-65
2023/12/24 12:36:25;;;;;;;8.30;6.27;;;4.50;99.90;;;;;;5144610;27;20219;-66
2023/12/24 12:38:53;;;;;;;7.43;6.10;;;4.50;99.90;;;;;;5142769;27;20190;-64
2023/12/24 12:41:23;;;;;;;8.80;5.90;;;4.50;99.90;;;;;;5133353;27;20199;-64
2023/12/24 12:43:51;;;;;;;8.87;5.90;;;4.40;99.90;;;;;;5133678;27;20201;-65
2023/12/24 12:46:21;;;;;;;7.87;5.53;;;4.50;99.90;;;;;;5132987;27;20252;-64
2023/12/24 12:48:51;;;;;;;17.67;11.67;;;4.40;99.90;;;;;;5133381;27;20668;-65
2023/12/24 12:51:20;;;;;;;6.70;5.23;;;4.60;99.90;;;;;;5137604;27;20194;-64
2023/12/24 12:53:49;;;;;;;8.33;5.67;;;4.40;99.90;;;;;;5148443;27;20598;-65
2023/12/24 12:56:17;;;;;;;7.77;5.70;;;4.40;99.90;;;;;;5153893;27;20587;-67
2023/12/24 12:58:52;;;;;;;6.03;4.57;;;4.40;99.90;;;;;;5153925;27;20206;-66
2023/12/24 13:01:23;;;;;;;5.63;5.07;;;4.50;99.90;;;;;;5153595;27;20690;-64
2023/12/24 13:03:59;;;;;;;6.03;4.80;;;4.50;99.90;;;;;;5153638;27;20218;-65
2023/12/24 13:06:28;;;;;;;9.57;6.10;;;4.50;99.90;;;;;;5168658;27;20573;-65
2023/12/24 13:09:07;;;;;;;5.17;4.67;;;4.20;99.90;;;;;;5145310;27;20303;-65